Sct Zurich — V7NG2 — position and weather

sailwx.info

Track history (hours):
 
Tides and Currents Weather Stations Pressure Air Temp Water Temp Dewpoint Dewpoint Depression Visibility Wind Speed Wind Dir Waves Ship Positions

Sct Zurich

Last reported at 2015-Jan-25 05:31 UTC. Time now 2015-Jan-26 14:27 UTC.
Position N 37°57' W 076°10'.

Length 294 m; draft 10.5 m.

Type: Ship (hazmat cat D). MMSI: 538002956.

Date/timePositionNaut miles runAvg speedWind from/ knotsBaromVisibWave heightAir tempDewpointWater temp
2015-Jan-25 05:31N 37°57' W 076°10'4420.9
2015-Jan-25 03:23N 38°40' W 076°25'1720.3
2015-Jan-25 02:33N 38°57' W 076°23'1313.5
2015-Jan-25 01:33N 39°10' W 076°26'8 7.8
2015-Jan-25 00:33N 39°15' W 076°33'0 0.3
2015-Jan-24 23:32N 39°15' W 076°33'0 0.0
2015-Jan-24 22:32N 39°15' W 076°33'0 0.0
2015-Jan-24 21:32N 39°15' W 076°33'0 0.0
2015-Jan-24 20:32N 39°15' W 076°33'0 0.0
2015-Jan-24 19:32N 39°15' W 076°33'0 0.0
2015-Jan-24 18:32N 39°15' W 076°33'0 0.0
2015-Jan-24 17:32N 39°15' W 076°33'0 0.0
2015-Jan-24 16:32N 39°15' W 076°33'0 0.0
2015-Jan-24 15:32N 39°15' W 076°33'0 0.0
2015-Jan-24 14:32N 39°15' W 076°33'0 0.0
2015-Jan-24 13:32N 39°15' W 076°33'0 0.0
2015-Jan-24 12:32N 39°15' W 076°33'0 0.0
2015-Jan-24 11:32N 39°15' W 076°33'0 0.0
2015-Jan-24 10:32N 39°15' W 076°33'0 0.0
2015-Jan-24 09:32N 39°15' W 076°33'1 0.9
2015-Jan-24 08:33N 39°14' W 076°33'8 7.7
2015-Jan-24 07:33N 39°09' W 076°25'1313.3
2015-Jan-24 06:33N 38°56' W 076°23'6219.1
2015-Jan-24 03:18N 37°55' W 076°09'18010.0
2015-Jan-23 09:23N 40°18' W 073°49'8 9.7
2015-Jan-23 08:33N 40°26' W 073°49'9 8.8
2015-Jan-23 07:33N 40°31' W 073°59'1010.2
2015-Jan-23 06:33N 40°39' W 074°07'3 2.8
2015-Jan-23 05:30N 40°41' W 074°09'0 0.0
2015-Jan-23 04:33N 40°41' W 074°09'0 0.0
2015-Jan-23 03:33N 40°41' W 074°09'0 0.0
2015-Jan-23 02:33N 40°41' W 074°09'0 0.0
2015-Jan-23 01:33N 40°41' W 074°09'0 0.0
2015-Jan-23 00:33N 40°41' W 074°09'0 0.0
2015-Jan-22 23:33N 40°41' W 074°09'0 0.0
2015-Jan-22 22:33N 40°41' W 074°09'0 0.0
2015-Jan-22 21:33N 40°41' W 074°09'0 0.0
2015-Jan-22 20:33N 40°41' W 074°09'0 0.0
2015-Jan-22 19:33N 40°41' W 074°09'0 0.0
2015-Jan-22 18:33N 40°41' W 074°09'0 0.0
2015-Jan-22 17:33N 40°41' W 074°09'0 0.0
2015-Jan-22 16:33N 40°41' W 074°09'0 0.0
2015-Jan-22 15:33N 40°41' W 074°09'0 0.0
2015-Jan-22 14:33N 40°41' W 074°09'0 0.0
2015-Jan-22 13:33N 40°41' W 074°09'0 0.0
2015-Jan-22 12:33N 40°41' W 074°09'0 0.0
2015-Jan-22 11:33N 40°41' W 074°09'2 1.6
2015-Jan-22 10:33N 40°40' W 074°09'5 4.7
2015-Jan-22 09:33N 40°38' W 074°03'10 9.8
2015-Jan-22 08:33N 40°30' W 073°56'8 8.3
2015-Jan-22 07:33N 40°27' W 073°45'5 4.6
2015-Jan-22 06:28N 40°29' W 073°39'0 0.0
2015-Jan-22 05:31N 40°29' W 073°39'0 0.0
2015-Jan-22 04:31N 40°29' W 073°39'0 0.1
2015-Jan-22 03:19N 40°29' W 073°39'0 0.1
2015-Jan-22 02:28N 40°29' W 073°39'0 0.0
2015-Jan-22 01:31N 40°29' W 073°39'0 0.0
2015-Jan-22 00:31N 40°29' W 073°39'0 0.0
2015-Jan-21 23:31N 40°29' W 073°39'0 0.0
2015-Jan-21 22:40N 40°29' W 073°39'0 0.0
2015-Jan-21 22:28N 40°29' W 073°39'0 0.1
2015-Jan-21 21:28N 40°29' W 073°39'0 0.0
2015-Jan-21 20:28N 40°29' W 073°39'0 0.0
2015-Jan-21 19:28N 40°29' W 073°39'0 0.0
2015-Jan-21 18:31N 40°29' W 073°39'0 0.1
2015-Jan-21 17:28N 40°29' W 073°39'0 0.1
2015-Jan-21 16:31N 40°29' W 073°39'0 0.1
2015-Jan-21 15:31N 40°29' W 073°39'0 0.0
2015-Jan-21 14:31N 40°29' W 073°39'0 0.0
2015-Jan-21 13:31N 40°29' W 073°39'0 0.0
2015-Jan-21 12:34N 40°29' W 073°39'0 0.0
2015-Jan-21 11:33N 40°29' W 073°39'0 0.1
2015-Jan-21 10:33N 40°29' W 073°39'0 0.0
2015-Jan-21 09:33N 40°29' W 073°39'0 0.1
2015-Jan-21 08:33N 40°29' W 073°39'0 0.1
2015-Jan-21 07:03N 40°29' W 073°39'0 0.0
2015-Jan-21 05:33N 40°29' W 073°39'0 0.0
2015-Jan-21 04:30N 40°29' W 073°39'0 0.0
2015-Jan-21 03:15N 40°29' W 073°39'0 0.1
2015-Jan-21 02:20N 40°29' W 073°39'4 5.4
2015-Jan-21 01:33N 40°28' W 073°33'1411.3
2015-Jan-21 00:21N 40°30' W 073°16'1412.6
2015-Jan-20 23:12N 40°30' W 072°57'812.5
2015-Jan-20 22:33N 40°30' W 072°46'1212.3
2015-Jan-20 21:33N 40°31' W 072°30'1212.2
2015-Jan-20 20:33N 40°31' W 072°14'1212.1
2015-Jan-20 19:33N 40°31' W 071°58'1312.0
2015-Jan-20 18:29N 40°32' W 071°41'1111.8
2015-Jan-20 17:33N 40°32' W 071°27'1111.5
2015-Jan-20 16:33N 40°33' W 071°12'1111.2
2015-Jan-20 15:33N 40°33' W 070°57'1111.1
2015-Jan-20 14:33N 40°33' W 070°42'10 9.8
2015-Jan-20 13:32N 40°34' W 070°29'1010.1
2015-Jan-20 12:33N 40°34' W 070°16'1111.0
2015-Jan-20 11:33N 40°34' W 070°02'1211.0
2015-Jan-20 10:26N 40°35' W 069°46'117 8.4
2015-Jan-19 20:33N 42°22' W 070°46'11 2.0
2015-Jan-19 15:10N 42°21' W 071°01'3 0.7
2015-Jan-19 10:18N 42°20' W 070°56'8 9.2
2015-Jan-19 09:28N 42°23' W 070°47'13512.3
2015-Jan-18 22:29N 40°36' W 068°56'4515.2
2015-Jan-18 19:33N 40°05' W 069°38'1615.4
2015-Jan-18 18:30N 39°54' W 069°54'  
2015-Jan-16 02:33N 39°38' W 073°52'1212.6
2015-Jan-16 01:33N 39°50' W 073°51'3311.0
2015-Jan-15 22:33N 40°23' W 073°49'8 7.5
2015-Jan-15 21:33N 40°29' W 073°54'1212.1
2015-Jan-15 20:33N 40°39' W 074°04'4 3.8
2015-Jan-15 19:33N 40°40' W 074°08'1 0.8
2015-Jan-15 18:33N 40°41' W 074°09'0 0.0
2015-Jan-15 17:33N 40°41' W 074°09'0 0.0
2015-Jan-15 16:33N 40°41' W 074°09'0 0.0
2015-Jan-15 15:34N 40°41' W 074°09'0 0.0
2015-Jan-15 14:33N 40°41' W 074°09'0 0.0
2015-Jan-15 13:32N 40°41' W 074°09'0 0.0
2015-Jan-15 12:33N 40°41' W 074°09'0 0.0
2015-Jan-15 11:33N 40°41' W 074°09'0 0.0
2015-Jan-15 10:33N 40°41' W 074°09'0 0.0
2015-Jan-15 09:33N 40°41' W 074°09'0 0.0
2015-Jan-15 08:33N 40°41' W 074°09'0 0.0
2015-Jan-15 07:33N 40°41' W 074°09'0 0.0
2015-Jan-15 06:33N 40°41' W 074°09'0 0.0
2015-Jan-15 05:33N 40°41' W 074°09'  
Track history (hours):
 
Tides and Currents Weather Stations Pressure Air Temp Water Temp Dewpoint Dewpoint Depression Visibility Wind Speed Wind Dir Waves Ship Positions

Sct Zurich

Last reported at 2015-Jan-25 05:31 UTC. Time now 2015-Jan-26 14:27 UTC.
Position N 37°57' W 076°10'.

Length 294 m; draft 10.5 m.

Type: Ship (hazmat cat D). MMSI: 538002956.

Date/timePositionNaut miles runAvg speedWind from/ knotsBaromVisibWave heightAir tempDewpointWater temp
2015-Jan-25 05:31N 37°57' W 076°10'4420.9
2015-Jan-25 03:23N 38°40' W 076°25'1720.3
2015-Jan-25 02:33N 38°57' W 076°23'1313.5
2015-Jan-25 01:33N 39°10' W 076°26'8 7.8
2015-Jan-25 00:33N 39°15' W 076°33'0 0.3
2015-Jan-24 23:32N 39°15' W 076°33'0 0.0
2015-Jan-24 22:32N 39°15' W 076°33'0 0.0
2015-Jan-24 21:32N 39°15' W 076°33'0 0.0
2015-Jan-24 20:32N 39°15' W 076°33'0 0.0
2015-Jan-24 19:32N 39°15' W 076°33'0 0.0
2015-Jan-24 18:32N 39°15' W 076°33'0 0.0
2015-Jan-24 17:32N 39°15' W 076°33'0 0.0
2015-Jan-24 16:32N 39°15' W 076°33'0 0.0
2015-Jan-24 15:32N 39°15' W 076°33'0 0.0
2015-Jan-24 14:32N 39°15' W 076°33'0 0.0
2015-Jan-24 13:32N 39°15' W 076°33'0 0.0
2015-Jan-24 12:32N 39°15' W 076°33'0 0.0
2015-Jan-24 11:32N 39°15' W 076°33'0 0.0
2015-Jan-24 10:32N 39°15' W 076°33'0 0.0
2015-Jan-24 09:32N 39°15' W 076°33'1 0.9
2015-Jan-24 08:33N 39°14' W 076°33'8 7.7
2015-Jan-24 07:33N 39°09' W 076°25'1313.3
2015-Jan-24 06:33N 38°56' W 076°23'6219.1
2015-Jan-24 03:18N 37°55' W 076°09'18010.0
2015-Jan-23 09:23N 40°18' W 073°49'8 9.7
2015-Jan-23 08:33N 40°26' W 073°49'9 8.8
2015-Jan-23 07:33N 40°31' W 073°59'1010.2
2015-Jan-23 06:33N 40°39' W 074°07'3 2.8
2015-Jan-23 05:30N 40°41' W 074°09'0 0.0
2015-Jan-23 04:33N 40°41' W 074°09'0 0.0
2015-Jan-23 03:33N 40°41' W 074°09'0 0.0
2015-Jan-23 02:33N 40°41' W 074°09'0 0.0
2015-Jan-23 01:33N 40°41' W 074°09'0 0.0
2015-Jan-23 00:33N 40°41' W 074°09'0 0.0
2015-Jan-22 23:33N 40°41' W 074°09'0 0.0
2015-Jan-22 22:33N 40°41' W 074°09'0 0.0
2015-Jan-22 21:33N 40°41' W 074°09'0 0.0
2015-Jan-22 20:33N 40°41' W 074°09'0 0.0
2015-Jan-22 19:33N 40°41' W 074°09'0 0.0
2015-Jan-22 18:33N 40°41' W 074°09'0 0.0
2015-Jan-22 17:33N 40°41' W 074°09'0 0.0
2015-Jan-22 16:33N 40°41' W 074°09'0 0.0
2015-Jan-22 15:33N 40°41' W 074°09'0 0.0
2015-Jan-22 14:33N 40°41' W 074°09'0 0.0
2015-Jan-22 13:33N 40°41' W 074°09'0 0.0
2015-Jan-22 12:33N 40°41' W 074°09'0 0.0
2015-Jan-22 11:33N 40°41' W 074°09'2 1.6
2015-Jan-22 10:33N 40°40' W 074°09'5 4.7
2015-Jan-22 09:33N 40°38' W 074°03'10 9.8
2015-Jan-22 08:33N 40°30' W 073°56'8 8.3
2015-Jan-22 07:33N 40°27' W 073°45'5 4.6
2015-Jan-22 06:28N 40°29' W 073°39'0 0.0
2015-Jan-22 05:31N 40°29' W 073°39'0 0.0
2015-Jan-22 04:31N 40°29' W 073°39'0 0.1
2015-Jan-22 03:19N 40°29' W 073°39'0 0.1
2015-Jan-22 02:28N 40°29' W 073°39'0 0.0
2015-Jan-22 01:31N 40°29' W 073°39'0 0.0
2015-Jan-22 00:31N 40°29' W 073°39'0 0.0
2015-Jan-21 23:31N 40°29' W 073°39'0 0.0
2015-Jan-21 22:40N 40°29' W 073°39'0 0.0
2015-Jan-21 22:28N 40°29' W 073°39'0 0.1
2015-Jan-21 21:28N 40°29' W 073°39'0 0.0
2015-Jan-21 20:28N 40°29' W 073°39'0 0.0
2015-Jan-21 19:28N 40°29' W 073°39'0 0.0
2015-Jan-21 18:31N 40°29' W 073°39'0 0.1
2015-Jan-21 17:28N 40°29' W 073°39'0 0.1
2015-Jan-21 16:31N 40°29' W 073°39'0 0.1
2015-Jan-21 15:31N 40°29' W 073°39'0 0.0
2015-Jan-21 14:31N 40°29' W 073°39'0 0.0
2015-Jan-21 13:31N 40°29' W 073°39'0 0.0
2015-Jan-21 12:34N 40°29' W 073°39'0 0.0
2015-Jan-21 11:33N 40°29' W 073°39'0 0.1
2015-Jan-21 10:33N 40°29' W 073°39'0 0.0
2015-Jan-21 09:33N 40°29' W 073°39'0 0.1
2015-Jan-21 08:33N 40°29' W 073°39'0 0.1
2015-Jan-21 07:03N 40°29' W 073°39'0 0.0
2015-Jan-21 05:33N 40°29' W 073°39'0 0.0
2015-Jan-21 04:30N 40°29' W 073°39'0 0.0
2015-Jan-21 03:15N 40°29' W 073°39'0 0.1
2015-Jan-21 02:20N 40°29' W 073°39'4 5.4
2015-Jan-21 01:33N 40°28' W 073°33'1411.3
2015-Jan-21 00:21N 40°30' W 073°16'1412.6
2015-Jan-20 23:12N 40°30' W 072°57'812.5
2015-Jan-20 22:33N 40°30' W 072°46'1212.3
2015-Jan-20 21:33N 40°31' W 072°30'1212.2
2015-Jan-20 20:33N 40°31' W 072°14'1212.1
2015-Jan-20 19:33N 40°31' W 071°58'1312.0
2015-Jan-20 18:29N 40°32' W 071°41'1111.8
2015-Jan-20 17:33N 40°32' W 071°27'1111.5
2015-Jan-20 16:33N 40°33' W 071°12'1111.2
2015-Jan-20 15:33N 40°33' W 070°57'1111.1
2015-Jan-20 14:33N 40°33' W 070°42'10 9.8
2015-Jan-20 13:32N 40°34' W 070°29'1010.1
2015-Jan-20 12:33N 40°34' W 070°16'1111.0
2015-Jan-20 11:33N 40°34' W 070°02'1211.0
2015-Jan-20 10:26N 40°35' W 069°46'117 8.4
2015-Jan-19 20:33N 42°22' W 070°46'11 2.0
2015-Jan-19 15:10N 42°21' W 071°01'3 0.7
2015-Jan-19 10:18N 42°20' W 070°56'8 9.2
2015-Jan-19 09:28N 42°23' W 070°47'13512.3
2015-Jan-18 22:29N 40°36' W 068°56'4515.2
2015-Jan-18 19:33N 40°05' W 069°38'1615.4
2015-Jan-18 18:30N 39°54' W 069°54'  
2015-Jan-16 02:33N 39°38' W 073°52'1212.6
2015-Jan-16 01:33N 39°50' W 073°51'3311.0
2015-Jan-15 22:33N 40°23' W 073°49'8 7.5
2015-Jan-15 21:33N 40°29' W 073°54'1212.1
2015-Jan-15 20:33N 40°39' W 074°04'4 3.8
2015-Jan-15 19:33N 40°40' W 074°08'1 0.8
2015-Jan-15 18:33N 40°41' W 074°09'0 0.0
2015-Jan-15 17:33N 40°41' W 074°09'0 0.0
2015-Jan-15 16:33N 40°41' W 074°09'0 0.0
2015-Jan-15 15:34N 40°41' W 074°09'0 0.0
2015-Jan-15 14:33N 40°41' W 074°09'0 0.0
2015-Jan-15 13:32N 40°41' W 074°09'0 0.0
2015-Jan-15 12:33N 40°41' W 074°09'0 0.0
2015-Jan-15 11:33N 40°41' W 074°09'0 0.0
2015-Jan-15 10:33N 40°41' W 074°09'0 0.0
2015-Jan-15 09:33N 40°41' W 074°09'0 0.0
2015-Jan-15 08:33N 40°41' W 074°09'0 0.0
2015-Jan-15 07:33N 40°41' W 074°09'0 0.0
2015-Jan-15 06:33N 40°41' W 074°09'0 0.0
2015-Jan-15 05:33N 40°41' W 074°09'  

Dump ship's entire track history